Station info - map view · info · telemetry · weather · raw · status · beacons · messages · bulletins · browse · moving · my account
Callsign, ship name or locator: Clear       
It is possible to search using wildcards (*?) after a prefix. Example: OH*
APRS station OM4MO-8 - show graphs
Map loading...
Comment: 145.500MHz DE PETER 73 messages welcome
Mic-E message: En route
Location: 47°48.07' N 13°01.54' E - locator JN67MT32BG - show map - static map
2.2 miles South bearing 189° from Bergheim, Politischer Bezirk Salzburg Umgebung, Salzburg, Austria [?]
3.9 miles Southeast bearing 150° from Freilassing, Bavaria, Germany
67.8 miles Southwest bearing 240° from Linz, Upper Austria, Austria
70.9 miles East bearing 109° from München (Muenchen), Regierungsbezirk Oberbayern, Bavaria, Germany
Last position: 2021-03-02 16:46:03 EST (4d 21h37m ago)
2021-03-02 22:46:03 CET local time at Bergheim, Austria [?]
Altitude: 1345 ft
Course: 129°
Speed: 11 MPH
Device: Yaesu: FTM-400DR (rig)
Last path: OM4MO-8>TW4X07 via WIDE1-1,WIDE2-1,qAU,OE2XZR-10 (good)
Positions stored: 10814
Other SSIDs: OM4MO-1 OM4MO-10 OM4MO-7 OM4MO-B OM4MO-N OM4MO-Y
Stations near current position of OM4MO-8 - show more
callsign distance last heard - EST      callsign distance last heard - EST
VISIT-OE21.0 miles 101°2021-03-07 14:12:08 LOWS1.2 miles 229°2021-03-07 14:06:46
OE7MBT-91.2 miles 49°2021-03-01 16:08:28 OE/SB-3001.5 miles 79°2021-03-07 05:05:48
OE2XAL-DP1.7 miles 289°2021-02-26 13:22:33 AFVS Club1.7 miles 289°2021-03-07 14:08:08
OE2XTL-112.2 miles 222°2021-03-07 14:23:08 WE2XTL-112.2 miles 222°2021-03-04 04:30:33
OF2XTL-112.2 miles 222°2021-02-23 16:57:28 OE2XXL-112.2 miles 222°2021-03-06 18:16:51
OC2XTL-112.2 miles 222°2021-02-18 08:19:56 OE2XTJ-112.2 miles 222°2021-02-06 09:08:10
OE2XLL-112.2 miles 222°2021-02-19 01:31:16 OE2XTL-72.2 miles 222°2021-03-04 19:45:26
WI2XTL-112.2 miles 222°2021-03-07 11:04:56 OE2RNM2.3 miles 83°2021-02-19 14:54:49
OE2JHN-42.6 miles 345°2021-03-03 09:47:06 OE2JHN-92.6 miles 346°2021-03-07 05:02:18
OE2JHN-DP2.6 miles 345°2021-03-07 14:22:34 OE2JHN-52.6 miles 345°2021-02-25 09:33:55
Stations which heard OM4MO-8 directly on radio –
callsign pkts first heard - EST last heard longest (tx => rx) longest at - EST
OE1XQR 10 2021-03-02 13:15:16 2021-03-02 13:53:13 JN88HC > JN88EE 13.9 miles 292° 2021-03-02 13:15:16
OE6XTR 6 2021-03-02 11:54:52 2021-03-02 13:29:42 JN88VG > JN77VN 105.1 miles 244° 2021-03-02 11:54:52
HG1PNY-1 3 2021-03-02 11:54:49 2021-03-02 12:53:36 JN88VG > JN87TN 47.7 miles 189° 2021-03-02 11:54:49
OE3UKW 1 2021-03-02 13:30:50 2021-03-02 13:30:50 JN88FD > JN88HJ 19.7 miles 20° 2021-03-02 13:30:50
OE3XXR 3 2021-03-02 15:20:30 2021-03-02 15:24:34 JN78EF > JN78GD 7.9 miles 125° 2021-03-02 15:24:34
OE5XIM-10 3 2021-03-02 15:52:33 2021-03-02 16:16:23 JN67RV > JN78DN 58.4 miles 40° 2021-03-02 16:16:23
OE5XGL-10 18 2021-03-02 15:13:54 2021-03-02 16:25:50 JN78HD > JN67VV 39.4 miles 246° 2021-03-02 15:13:54
OE1XDS-10 6 2021-03-02 13:21:55 2021-03-02 14:00:58 JN88HC > JN88EF 16.9 miles 301° 2021-03-02 13:21:55
OE5REO-10 5 2021-03-02 15:13:05 2021-03-02 15:47:27 JN78HC > JN77BV 27.0 miles 237° 2021-03-02 15:13:05
OE1IWA-10 11 2021-03-02 13:36:51 2021-03-02 13:55:00 JN88CC > JN88ED 5.8 miles 60° 2021-03-02 13:55:00
OE2XZR-10 11 2021-03-02 16:23:38 2021-03-02 16:46:03 JN67QU > JN67NT 12.0 miles 253° 2021-03-02 16:23:38
OE3MZC-2 5 2021-03-02 14:13:11 2021-03-02 14:38:35 JN78QE > JN78XE 25.2 miles 89° 2021-03-02 14:38:35
OE3XDA-10 5 2021-03-02 14:49:10 2021-03-02 15:03:33 JN78OE > JN78LA 15.6 miles 227° 2021-03-02 14:49:10
OE3SZA-10 1 2021-03-02 15:06:07 2021-03-02 15:06:07 JN78JC > JN78KD 4.6 miles 83° 2021-03-02 15:06:07
OE1IWA-11 10 2021-03-02 13:19:48 2021-03-02 13:56:32 JN88HC > JN88DD 17.4 miles 280° 2021-03-02 13:19:48
HG7PDK-2 3 2021-03-02 11:22:25 2021-03-02 11:50:11 JN88XH > JN97KR 60.9 miles 132° 2021-03-02 11:50:11
OM0OUX-1 11 2021-03-02 11:21:59 2021-03-02 11:43:03 JN88XH > JN98KJ 43.2 miles 82° 2021-03-02 11:43:03
OE3PAS-15 1 2021-03-02 13:49:14 2021-03-02 13:49:14 JN88DC > JN87DX 9.5 miles 189° 2021-03-02 13:49:14
OE5EEP-10 11 2021-03-02 16:03:24 2021-03-02 16:23:05 JN67QU > JN67TX 13.3 miles 55° 2021-03-02 16:23:05
OE3BUB-10 4 2021-03-02 13:30:15 2021-03-02 13:54:11 JN88CC > JN88FG 16.0 miles 36° 2021-03-02 13:54:11
OE3PDB-3 2 2021-03-02 13:27:49 2021-03-02 14:25:55 JN78SE > JN88BG 25.2 miles 78° 2021-03-02 14:25:55
OE3XFW-10 3 2021-03-02 14:09:06 2021-03-02 14:12:12 JN78XD > JN78XD 3.1 miles 108° 2021-03-02 14:12:12
OE3XLR 25 2021-03-02 14:21:53 2021-03-02 15:36:28 JN78BD > JN77TX 68.1 miles 100° 2021-03-02 15:36:28
OE3MUC-15 8 2021-03-02 14:52:59 2021-03-02 15:46:26 JN78BD > JN78SK 68.4 miles 73° 2021-03-02 15:46:26
OM1ATS-1 6 2021-03-02 12:11:49 2021-03-02 13:01:22 JN88LA > JN88PC 16.4 miles 75° 2021-03-02 13:01:22
OE5XHR-10 1 2021-03-02 15:55:26 2021-03-02 15:55:26 JN68XA > JN68XR 49.2 miles 358° 2021-03-02 15:55:26
OM1ATS-2 17 2021-03-02 12:22:56 2021-03-02 13:00:50 JN88LA > JN88ND 9.8 miles 34° 2021-03-02 13:00:50
OE3PDB-10 4 2021-03-02 13:15:15 2021-03-02 14:25:54 JN88HC > JN88BG 28.4 miles 293° 2021-03-02 13:15:15
OE5WWO 4 2021-03-02 15:17:19 2021-03-02 15:28:47 JN78GE > JN78DH 13.9 miles 309° 2021-03-02 15:17:19
OM0OPA-1 3 2021-03-02 11:30:43 2021-03-02 11:51:04 JN88WH > JN98CC 19.3 miles 139° 2021-03-02 11:51:04
OE3XMC-10 1 2021-03-02 13:34:44 2021-03-02 13:34:44 JN88FC > JN88FD 2.3 miles 61° 2021-03-02 13:34:44
OE3XWJ-10 11 2021-03-02 14:09:38 2021-03-02 14:52:17 JN78XD > JN78QI 32.1 miles 294° 2021-03-02 14:09:38
OE5XOL-10 5 2021-03-02 15:26:06 2021-03-02 15:53:24 JN78AB > JN78DJ 28.2 miles 26° 2021-03-02 15:53:24
OE3XXI 7 2021-03-02 13:15:52 2021-03-02 13:55:01 JN88CC > JN88HE 18.4 miles 74° 2021-03-02 13:55:01
OE5XGR-10 1 2021-03-02 16:39:29 2021-03-02 16:39:29 JN67MT > JN68LD 21.1 miles 351° 2021-03-02 16:39:29
OE1XUR-10 2 2021-03-02 13:04:43 2021-03-02 13:31:43 JN88KA > JN88ED 24.3 miles 290° 2021-03-02 13:04:43
OE1XUR 17 2021-03-02 13:04:43 2021-03-02 13:55:01 JN88KA > JN88ED 24.3 miles 290° 2021-03-02 13:04:43
OM6ADK-10 2 2021-03-02 12:54:09 2021-03-02 13:02:26 JN88LA > JN88PC 15.2 miles 73° 2021-03-02 13:02:26
DB0WGS-10 1 2021-03-02 16:12:54 2021-03-02 16:12:54 JN67SW > JN68VO 46.6 miles 15° 2021-03-02 16:12:54
OE1IWA-12 12 2021-03-02 13:15:14 2021-03-02 13:54:11 JN88HC > JN88ED 14.9 miles 282° 2021-03-02 13:15:14

Only position packets which were originated by the station are shown here. The range statistics show some extra long hops, because some digipeaters do not correctly add themselves to the digipeater path. Please check the raw packets.
About this site
This page shows real-time information collected from the Automatic Position Reporting System Internet network (APRS-IS). APRS is used by amateur (ham) radio operators to transmit real-time position information, weather data, telemetry and messages over the radio. A vehicle equipped with a GPS receiver, a VHF transmitter or HF transceiver and a small computer device called a tracker transmits it's location, speed and course in a small data packet, which is then received by a nearby iGate receiving site which forwards the packet on the Internet. Systems connected to the Internet can send information on the APRS-IS without a radio transmitter, or collect and display information transmitted anywhere in the world.
User guide · FAQ · Blog · Discussion group · Linking to aprs.fi · AIS sites · Service status · Database statistics · Advertising on aprs.fi · Technical details · API · Change log · Planned changes · Credits and thanks · Terms Of Service · iPhone/iPad APRS